No requiere especial atencion con respecto al clima.   -   No hay Alarmas

Informes METAR

 

KSJC - San Jose, California, USA
Distancia de la estación: NE 14km
Actualización: 20/01/2019 01:53
Cubierto
Cubierto
 Viento de NO
Viento: NO 9 km/h
Temperatura: 16°C
Rocío: 10°C
Humedad: 68%
Barómetro: 1024 hPa
Nubes: Cubierto
Visibilidad: 16 km
Detalles de las nubes: Poco nuboso 853 m
Muy nuboso 3658 m
Cubierto 6096 m
2019/01/20 00:53 KSJC 200053Z 32005KT 10SM FEW028 BKN120 OVC200 16/10 A3024 RMK AO2 SLP237 FU FEW028 T01610100 $
KNUQ - Moffett Nas/Mtn, California, USA
Distancia de la estación: N 14km
Actualización: 20/01/2019 01:56
Cubierto
Cubierto
 Viento de calm
Viento: Calma
Temperatura: 18°C
Rocío: 10°C
Humedad: 60%
Barómetro: 1024 hPa
Nubes: Cubierto
Visibilidad: 16 km
Detalles de las nubes: Cubierto 1676 m
2019/01/20 00:56 KNUQ 200056Z 00000KT 10SM OVC055 18/10 A3024 RMK AO2 SLP242 T01780100
 
KPAO - Palo Alto, California, USA
Distancia de la estación: NNO 23km
Actualización: 20/01/2019 01:47
Muy nuboso
Muy nuboso
 Viento de NO
Viento: NO 9 km/h
Temperatura: 17°C
Rocío: 12°C
Humedad: 73%
Barómetro: 1024.4 hPa
Nubes: Muy nuboso
Visibilidad: 16 km
Detalles de las nubes: Poco nuboso 914 m
Muy nuboso 1829 m
Muy nuboso 4572 m
2019/01/20 00:47 KPAO 200047Z 32005KT 10SM FEW030 BKN060 BKN150 17/12 A3025
KRHV - San Jose/Reid, California, USA
Distancia de la estación: ENE 19km
Actualización: 20/01/2019 01:47
Muy nuboso
Muy nuboso
 Viento de NNO
Viento: NNO 15 km/h
Temperatura: 18°C
Rocío: 11°C
Humedad: 64%
Barómetro: 1023.7 hPa
Nubes: Muy nuboso
Visibilidad: 16 km
Detalles de las nubes: Parcialmente nuboso 914 m
Muy nuboso 1829 m
2019/01/20 00:47 KRHV 200047Z 34008KT 10SM SCT030 BKN060 18/11 A3023
 
KOAK - Oakland, California, USA
Distancia de la estación: NNO 50km
Actualización: 20/01/2019 01:53
Cubierto
Cubierto
 Viento de NO
Viento: NO 11 km/h
Temperatura: 15°C
Rocío: 12°C
Humedad: 82%
Barómetro: 1024 hPa
Nubes: Cubierto
Visibilidad: 16 km
Detalles de las nubes: Poco nuboso 853 m
Muy nuboso 1829 m
Cubierto 7620 m
2019/01/20 00:53 KOAK 200053Z 31006KT 10SM FEW028 BKN060 OVC250 15/12 A3024 RMK AO2 SLP241 T01500117
KSQL - San Carlos Airpo, California, USA
Distancia de la estación: NO 34km
Actualización: 20/01/2019 01:47
Muy nuboso
Muy nuboso
 Viento de NO
Viento: NO 6 km/h
Temperatura: 18°C
Rocío: 12°C
Humedad: 68%
Barómetro: 1024 hPa
Nubes: Muy nuboso
Visibilidad: 16 km
Detalles de las nubes: Muy nuboso 1829 m
2019/01/20 00:47 KSQL 200047Z 31003KT 10SM BKN060 18/12 A3024
 
KSFO - San Francisco, California, USA
Distancia de la estación: NO 49km
Actualización: 20/01/2019 01:56
Muy nuboso
Muy nuboso
 Viento de NO
Viento: NO 13 km/h
Temperatura: 18°C
Rocío: 10°C
Humedad: 60%
Barómetro: 1023.7 hPa
Nubes: Muy nuboso
Visibilidad: 16 km
Detalles de las nubes: Poco nuboso 914 m
Muy nuboso 1829 m
Muy nuboso 5486 m
2019/01/20 00:56 KSFO 200056Z 31007KT 10SM FEW030 BKN060 BKN180 18/10 A3023 RMK AO2 SLP237 T01780100 $
KE16 - San Martin, California, USA
Distancia de la estación: ESE 43km
Actualización: 20/01/2019 02:30
Despejado
Despejado
 Viento de NO
Viento: NO 9 km/h
Temperatura: 18°C
Rocío: 11°C
Humedad: 64%
Barómetro: 1024 hPa
Nubes: Despejado
Visibilidad: 16 km
2019/01/20 01:30 KE16 200130Z AUTO 32005KT 10SM CLR 18/11 A3024 RMK AO2 PWINO PNO
 
KWVI - Watsonville, California, USA
Distancia de la estación: SSE 44km
Actualización: 20/01/2019 01:53
Despejado
Despejado
 Viento de calm
Viento: Calma
Temperatura: 17°C
Rocío: 12°C
Humedad: 73%
Barómetro: 1023.7 hPa
Nubes: Despejado
Visibilidad: 16 km
2019/01/20 00:53 KWVI 200053Z AUTO 00000KT 10SM CLR 17/12 A3023 RMK AO2 SLP236 T01720117
KHAF - Half Moon Bay, California, USA
Distancia de la estación: ONO 50km
Actualización: 20/01/2019 02:40
Cubierto
Cubierto
 Viento de calm
Viento: Calma
Temperatura: 15°C
Rocío: 12°C
Humedad: 82%
Barómetro: 1024 hPa
Nubes: Cubierto
Visibilidad: 11 km
Detalles de las nubes: Cubierto 1829 m
2019/01/20 01:40 KHAF 200140Z AUTO 00000KT 7SM OVC060 15/12 A3024 RMK AO2
 
KHWD - Hayward, California, USA
Distancia de la estación: N 44km
Actualización: 20/01/2019 01:54
Muy nuboso
Muy nuboso
 Viento de NO
Viento: NO 7 km/h
Temperatura: 17°C
Rocío: 12°C
Humedad: 73%
Barómetro: 1023.7 hPa
Nubes: Muy nuboso
Visibilidad: 16 km
Detalles de las nubes: Muy nuboso 1829 m
2019/01/20 00:54 KHWD 200054Z 32004KT 10SM BKN060 17/12 A3023 RMK AO2 SLP247 T01670117
KLVK - Livermore, California, USA
Distancia de la estación: NNE 51km
Actualización: 20/01/2019 01:53
Cubierto
Cubierto
 Viento de NE
Viento: NE 9 km/h
Temperatura: 17°C
Rocío: 12°C
Humedad: 73%
Barómetro: 1023.7 hPa
Nubes: Cubierto
Visibilidad: 16 km
Detalles de las nubes: Cubierto 1676 m
2019/01/20 00:53 KLVK 200053Z 05005KT 10SM OVC055 17/12 A3023 RMK AO2 SLP236 T01670117